sensor_id;sensor_type;location;lat;lon;timestamp;temperature;humidity
10129;DHT22;5104;50.720;7.044;2024-03-02T00:01:35;7.90;1.00
10129;DHT22;5104;50.720;7.044;2024-03-02T00:04:03;7.90;1.00
10129;DHT22;5104;50.720;7.044;2024-03-02T00:06:32;7.90;1.00
10129;DHT22;5104;50.720;7.044;2024-03-02T00:08:59;7.90;1.00
10129;DHT22;5104;50.720;7.044;2024-03-02T00:11:26;8.00;1.00
10129;DHT22;5104;50.720;7.044;2024-03-02T00:13:53;8.00;1.00
10129;DHT22;5104;50.720;7.044;2024-03-02T00:16:22;8.00;1.00
10129;DHT22;5104;50.720;7.044;2024-03-02T00:18:49;8.00;1.00
10129;DHT22;5104;50.720;7.044;2024-03-02T00:21:17;8.00;1.00
10129;DHT22;5104;50.720;7.044;2024-03-02T00:23:45;8.00;1.00
10129;DHT22;5104;50.720;7.044;2024-03-02T00:26:12;8.00;1.00
10129;DHT22;5104;50.720;7.044;2024-03-02T00:28:40;8.00;1.00
10129;DHT22;5104;50.720;7.044;2024-03-02T00:31:10;8.00;1.00
10129;DHT22;5104;50.720;7.044;2024-03-02T00:33:42;8.00;1.00
10129;DHT22;5104;50.720;7.044;2024-03-02T00:36:10;8.00;1.00
10129;DHT22;5104;50.720;7.044;2024-03-02T00:38:44;8.10;1.00
10129;DHT22;5104;50.720;7.044;2024-03-02T00:41:17;8.10;1.00
10129;DHT22;5104;50.720;7.044;2024-03-02T00:43:55;8.10;1.00
10129;DHT22;5104;50.720;7.044;2024-03-02T00:46:23;8.00;1.00
10129;DHT22;5104;50.720;7.044;2024-03-02T00:48:56;8.00;1.00
10129;DHT22;5104;50.720;7.044;2024-03-02T00:51:25;7.90;1.00
10129;DHT22;5104;50.720;7.044;2024-03-02T00:53:54;7.80;1.00
10129;DHT22;5104;50.720;7.044;2024-03-02T00:56:22;7.80;1.00
10129;DHT22;5104;50.720;7.044;2024-03-02T00:58:50;7.70;1.00
10129;DHT22;5104;50.720;7.044;2024-03-02T01:01:18;7.80;1.00
10129;DHT22;5104;50.720;7.044;2024-03-02T01:03:46;7.70;1.00
10129;DHT22;5104;50.720;7.044;2024-03-02T01:06:16;7.70;1.00
10129;DHT22;5104;50.720;7.044;2024-03-02T01:08:44;7.70;1.00
10129;DHT22;5104;50.720;7.044;2024-03-02T01:11:12;7.70;1.00
10129;DHT22;5104;50.720;7.044;2024-03-02T01:13:39;7.70;1.00
10129;DHT22;5104;50.720;7.044;2024-03-02T01:16:06;7.60;1.00
10129;DHT22;5104;50.720;7.044;2024-03-02T01:18:33;7.60;1.00
10129;DHT22;5104;50.720;7.044;2024-03-02T01:21:00;7.60;1.00
10129;DHT22;5104;50.720;7.044;2024-03-02T01:23:29;7.60;1.00
10129;DHT22;5104;50.720;7.044;2024-03-02T01:25:56;7.50;1.00
10129;DHT22;5104;50.720;7.044;2024-03-02T01:28:23;7.50;1.00
10129;DHT22;5104;50.720;7.044;2024-03-02T01:30:50;7.50;1.00
10129;DHT22;5104;50.720;7.044;2024-03-02T01:33:17;7.60;1.00
10129;DHT22;5104;50.720;7.044;2024-03-02T01:35:44;7.60;1.00
10129;DHT22;5104;50.720;7.044;2024-03-02T01:38:11;7.60;1.00
10129;DHT22;5104;50.720;7.044;2024-03-02T01:40:40;7.70;1.00
10129;DHT22;5104;50.720;7.044;2024-03-02T01:43:07;7.60;1.00
10129;DHT22;5104;50.720;7.044;2024-03-02T01:45:35;7.60;1.00
10129;DHT22;5104;50.720;7.044;2024-03-02T01:48:04;7.60;1.00
10129;DHT22;5104;50.720;7.044;2024-03-02T01:50:32;7.60;1.00
10129;DHT22;5104;50.720;7.044;2024-03-02T01:53:00;7.60;1.00
10129;DHT22;5104;50.720;7.044;2024-03-02T01:55:28;7.60;1.00
10129;DHT22;5104;50.720;7.044;2024-03-02T01:57:57;7.70;1.00
10129;DHT22;5104;50.720;7.044;2024-03-02T02:00:25;7.70;1.00
10129;DHT22;5104;50.720;7.044;2024-03-02T02:02:52;7.70;1.00
10129;DHT22;5104;50.720;7.044;2024-03-02T02:05:20;7.70;1.00
10129;DHT22;5104;50.720;7.044;2024-03-02T02:07:47;7.70;1.00
10129;DHT22;5104;50.720;7.044;2024-03-02T02:10:14;7.70;1.00
10129;DHT22;5104;50.720;7.044;2024-03-02T02:12:42;7.70;1.00
10129;DHT22;5104;50.720;7.044;2024-03-02T02:15:26;7.70;1.00
10129;DHT22;5104;50.720;7.044;2024-03-02T02:17:54;7.70;1.00
10129;DHT22;5104;50.720;7.044;2024-03-02T02:20:21;7.70;1.00
10129;DHT22;5104;50.720;7.044;2024-03-02T02:22:56;7.60;1.00
10129;DHT22;5104;50.720;7.044;2024-03-02T02:25:24;7.50;1.00
10129;DHT22;5104;50.720;7.044;2024-03-02T02:27:52;7.40;1.00
10129;DHT22;5104;50.720;7.044;2024-03-02T02:30:20;7.40;1.00
10129;DHT22;5104;50.720;7.044;2024-03-02T02:32:47;7.30;1.00
10129;DHT22;5104;50.720;7.044;2024-03-02T02:35:15;7.30;1.00
10129;DHT22;5104;50.720;7.044;2024-03-02T02:37:42;7.20;1.00
10129;DHT22;5104;50.720;7.044;2024-03-02T02:40:12;7.30;1.00
10129;DHT22;5104;50.720;7.044;2024-03-02T02:42:39;7.40;1.00
10129;DHT22;5104;50.720;7.044;2024-03-02T02:45:07;7.50;1.00
10129;DHT22;5104;50.720;7.044;2024-03-02T02:47:34;7.50;1.00
10129;DHT22;5104;50.720;7.044;2024-03-02T02:50:02;7.60;1.00
10129;DHT22;5104;50.720;7.044;2024-03-02T02:52:32;7.50;1.00
10129;DHT22;5104;50.720;7.044;2024-03-02T02:55:03;7.50;1.00
10129;DHT22;5104;50.720;7.044;2024-03-02T02:57:31;7.50;1.00
10129;DHT22;5104;50.720;7.044;2024-03-02T03:00:02;7.50;1.00
10129;DHT22;5104;50.720;7.044;2024-03-02T03:02:36;7.40;1.00
10129;DHT22;5104;50.720;7.044;2024-03-02T03:05:04;7.50;1.00
10129;DHT22;5104;50.720;7.044;2024-03-02T03:07:31;7.50;1.00
10129;DHT22;5104;50.720;7.044;2024-03-02T03:09:59;7.60;1.00
10129;DHT22;5104;50.720;7.044;2024-03-02T03:12:26;7.60;1.00
10129;DHT22;5104;50.720;7.044;2024-03-02T03:14:55;7.60;1.00
10129;DHT22;5104;50.720;7.044;2024-03-02T03:17:22;7.60;1.00
10129;DHT22;5104;50.720;7.044;2024-03-02T03:19:50;7.60;1.00
10129;DHT22;5104;50.720;7.044;2024-03-02T03:22:17;7.60;1.00
10129;DHT22;5104;50.720;7.044;2024-03-02T03:24:44;7.50;1.00
10129;DHT22;5104;50.720;7.044;2024-03-02T03:27:11;7.50;1.00
10129;DHT22;5104;50.720;7.044;2024-03-02T03:29:38;7.50;1.00
10129;DHT22;5104;50.720;7.044;2024-03-02T03:32:07;7.40;1.00
10129;DHT22;5104;50.720;7.044;2024-03-02T03:34:34;7.30;1.00
10129;DHT22;5104;50.720;7.044;2024-03-02T03:37:02;7.30;1.00
10129;DHT22;5104;50.720;7.044;2024-03-02T03:39:29;7.30;1.00
10129;DHT22;5104;50.720;7.044;2024-03-02T03:41:56;7.40;1.00
10129;DHT22;5104;50.720;7.044;2024-03-02T03:44:23;7.50;1.00
10129;DHT22;5104;50.720;7.044;2024-03-02T03:46:50;7.50;1.00
10129;DHT22;5104;50.720;7.044;2024-03-02T03:49:19;7.50;1.00
10129;DHT22;5104;50.720;7.044;2024-03-02T03:51:46;7.50;1.00
10129;DHT22;5104;50.720;7.044;2024-03-02T03:54:13;7.50;1.00
10129;DHT22;5104;50.720;7.044;2024-03-02T03:56:40;7.40;1.00
10129;DHT22;5104;50.720;7.044;2024-03-02T03:59:08;7.30;1.00
10129;DHT22;5104;50.720;7.044;2024-03-02T04:01:35;7.30;1.00
10129;DHT22;5104;50.720;7.044;2024-03-02T04:04:02;7.10;1.00
10129;DHT22;5104;50.720;7.044;2024-03-02T04:06:30;7.10;1.00
10129;DHT22;5104;50.720;7.044;2024-03-02T04:08:58;7.00;1.00
10129;DHT22;5104;50.720;7.044;2024-03-02T04:11:25;6.80;44.10
10129;DHT22;5104;50.720;7.044;2024-03-02T04:13:52;6.70;99.90
10129;DHT22;5104;50.720;7.044;2024-03-02T04:16:19;6.50;99.90
10129;DHT22;5104;50.720;7.044;2024-03-02T04:18:46;6.40;99.90
10129;DHT22;5104;50.720;7.044;2024-03-02T04:21:13;6.40;99.90
10129;DHT22;5104;50.720;7.044;2024-03-02T04:23:42;6.30;99.90
10129;DHT22;5104;50.720;7.044;2024-03-02T04:26:09;6.20;99.90
10129;DHT22;5104;50.720;7.044;2024-03-02T04:28:36;6.20;99.90
10129;DHT22;5104;50.720;7.044;2024-03-02T04:31:03;6.10;1.00
10129;DHT22;5104;50.720;7.044;2024-03-02T04:33:30;6.20;99.90
10129;DHT22;5104;50.720;7.044;2024-03-02T04:35:57;6.20;99.90
10129;DHT22;5104;50.720;7.044;2024-03-02T04:38:24;6.30;99.90
10129;DHT22;5104;50.720;7.044;2024-03-02T04:40:52;6.30;99.90
10129;DHT22;5104;50.720;7.044;2024-03-02T04:43:19;6.40;99.90
10129;DHT22;5104;50.720;7.044;2024-03-02T04:45:46;6.50;99.90
10129;DHT22;5104;50.720;7.044;2024-03-02T04:48:13;6.40;99.90
10129;DHT22;5104;50.720;7.044;2024-03-02T04:50:40;6.30;99.90
10129;DHT22;5104;50.720;7.044;2024-03-02T04:53:07;6.10;99.90
10129;DHT22;5104;50.720;7.044;2024-03-02T04:55:34;6.00;99.90
10129;DHT22;5104;50.720;7.044;2024-03-02T04:58:46;5.80;1.00
10129;DHT22;5104;50.720;7.044;2024-03-02T05:01:13;5.60;1.00
10129;DHT22;5104;50.720;7.044;2024-03-02T05:03:42;5.50;1.00
10129;DHT22;5104;50.720;7.044;2024-03-02T05:06:09;5.40;1.00
10129;DHT22;5104;50.720;7.044;2024-03-02T05:08:36;5.40;1.00
10129;DHT22;5104;50.720;7.044;2024-03-02T05:11:03;5.50;1.00
10129;DHT22;5104;50.720;7.044;2024-03-02T05:13:44;5.60;1.00
10129;DHT22;5104;50.720;7.044;2024-03-02T05:16:12;5.80;1.00
10129;DHT22;5104;50.720;7.044;2024-03-02T05:18:39;5.80;1.00
10129;DHT22;5104;50.720;7.044;2024-03-02T05:21:06;5.70;1.00
10129;DHT22;5104;50.720;7.044;2024-03-02T05:23:33;5.60;1.00
10129;DHT22;5104;50.720;7.044;2024-03-02T05:26:00;5.50;1.00
10129;DHT22;5104;50.720;7.044;2024-03-02T05:28:26;5.50;1.00
10129;DHT22;5104;50.720;7.044;2024-03-02T05:30:53;5.30;1.00
10129;DHT22;5104;50.720;7.044;2024-03-02T05:33:22;5.30;47.20
10129;DHT22;5104;50.720;7.044;2024-03-02T05:35:49;5.20;91.70
10129;DHT22;5104;50.720;7.044;2024-03-02T05:38:16;5.10;99.90
10129;DHT22;5104;50.720;7.044;2024-03-02T05:40:43;5.00;99.90
10129;DHT22;5104;50.720;7.044;2024-03-02T05:43:10;4.90;99.90
10129;DHT22;5104;50.720;7.044;2024-03-02T05:45:37;4.80;1.00
10129;DHT22;5104;50.720;7.044;2024-03-02T05:48:05;4.80;1.00
10129;DHT22;5104;50.720;7.044;2024-03-02T05:50:34;4.80;1.00
10129;DHT22;5104;50.720;7.044;2024-03-02T05:53:01;4.80;1.00
10129;DHT22;5104;50.720;7.044;2024-03-02T05:55:28;4.80;1.00
10129;DHT22;5104;50.720;7.044;2024-03-02T05:57:55;4.90;1.00
10129;DHT22;5104;50.720;7.044;2024-03-02T06:00:37;5.00;1.00
10129;DHT22;5104;50.720;7.044;2024-03-02T06:03:04;5.00;1.00
10129;DHT22;5104;50.720;7.044;2024-03-02T06:05:31;5.10;1.00
10129;DHT22;5104;50.720;7.044;2024-03-02T06:07:59;5.30;99.90
10129;DHT22;5104;50.720;7.044;2024-03-02T06:10:26;5.60;67.90
10129;DHT22;5104;50.720;7.044;2024-03-02T06:12:53;5.90;1.00
10129;DHT22;5104;50.720;7.044;2024-03-02T06:15:20;6.00;1.00
10129;DHT22;5104;50.720;7.044;2024-03-02T06:17:47;6.10;1.00
10129;DHT22;5104;50.720;7.044;2024-03-02T06:20:14;6.30;1.00
10129;DHT22;5104;50.720;7.044;2024-03-02T06:22:41;6.40;1.00
10129;DHT22;5104;50.720;7.044;2024-03-02T06:25:09;6.40;1.00
10129;DHT22;5104;50.720;7.044;2024-03-02T06:27:36;6.40;1.00
10129;DHT22;5104;50.720;7.044;2024-03-02T06:30:04;6.50;99.90
10129;DHT22;5104;50.720;7.044;2024-03-02T06:32:30;6.50;99.90
10129;DHT22;5104;50.720;7.044;2024-03-02T06:34:57;6.50;99.90
10129;DHT22;5104;50.720;7.044;2024-03-02T06:37:25;6.50;99.90
10129;DHT22;5104;50.720;7.044;2024-03-02T06:39:52;6.40;99.90
10129;DHT22;5104;50.720;7.044;2024-03-02T06:42:20;6.40;99.90
10129;DHT22;5104;50.720;7.044;2024-03-02T06:44:47;6.40;99.90
10129;DHT22;5104;50.720;7.044;2024-03-02T06:47:14;6.40;99.90
10129;DHT22;5104;50.720;7.044;2024-03-02T06:49:42;6.40;99.90
10129;DHT22;5104;50.720;7.044;2024-03-02T06:52:09;6.40;99.90
10129;DHT22;5104;50.720;7.044;2024-03-02T06:54:36;6.50;99.90
10129;DHT22;5104;50.720;7.044;2024-03-02T06:57:03;6.60;99.90
10129;DHT22;5104;50.720;7.044;2024-03-02T06:59:32;6.60;99.90
10129;DHT22;5104;50.720;7.044;2024-03-02T07:01:59;6.50;99.90
10129;DHT22;5104;50.720;7.044;2024-03-02T07:04:27;6.50;99.90
10129;DHT22;5104;50.720;7.044;2024-03-02T07:06:54;6.50;99.90
10129;DHT22;5104;50.720;7.044;2024-03-02T07:09:21;6.60;99.90
10129;DHT22;5104;50.720;7.044;2024-03-02T07:11:48;6.70;99.90
10129;DHT22;5104;50.720;7.044;2024-03-02T07:14:15;6.90;99.90
10129;DHT22;5104;50.720;7.044;2024-03-02T07:16:43;6.90;99.90
10129;DHT22;5104;50.720;7.044;2024-03-02T07:19:10;7.00;99.90
10129;DHT22;5104;50.720;7.044;2024-03-02T07:21:37;7.10;99.90
10129;DHT22;5104;50.720;7.044;2024-03-02T07:24:04;7.20;99.90
10129;DHT22;5104;50.720;7.044;2024-03-02T07:26:32;7.30;58.10
10129;DHT22;5104;50.720;7.044;2024-03-02T07:28:59;7.30;6.00
10129;DHT22;5104;50.720;7.044;2024-03-02T07:31:25;7.50;1.00
10129;DHT22;5104;50.720;7.044;2024-03-02T07:33:54;7.60;1.00
10129;DHT22;5104;50.720;7.044;2024-03-02T07:36:21;7.60;1.00
10129;DHT22;5104;50.720;7.044;2024-03-02T07:38:47;7.70;1.00
10129;DHT22;5104;50.720;7.044;2024-03-02T07:41:16;7.80;1.00
10129;DHT22;5104;50.720;7.044;2024-03-02T07:43:43;7.90;1.00
10129;DHT22;5104;50.720;7.044;2024-03-02T07:46:11;8.00;1.00
10129;DHT22;5104;50.720;7.044;2024-03-02T07:48:37;8.10;1.00
10129;DHT22;5104;50.720;7.044;2024-03-02T07:51:06;8.10;1.00
10129;DHT22;5104;50.720;7.044;2024-03-02T07:53:33;8.20;1.00
10129;DHT22;5104;50.720;7.044;2024-03-02T07:56:00;8.30;1.00
10129;DHT22;5104;50.720;7.044;2024-03-02T07:58:28;8.40;1.00
10129;DHT22;5104;50.720;7.044;2024-03-02T08:00:56;8.60;1.00
10129;DHT22;5104;50.720;7.044;2024-03-02T08:03:23;8.70;1.00
10129;DHT22;5104;50.720;7.044;2024-03-02T08:05:50;8.90;1.00
10129;DHT22;5104;50.720;7.044;2024-03-02T08:08:19;8.90;1.00
10129;DHT22;5104;50.720;7.044;2024-03-02T08:10:46;8.90;1.00
10129;DHT22;5104;50.720;7.044;2024-03-02T08:13:14;9.00;1.00
10129;DHT22;5104;50.720;7.044;2024-03-02T08:15:41;9.20;1.00
10129;DHT22;5104;50.720;7.044;2024-03-02T08:18:08;9.20;1.00
10129;DHT22;5104;50.720;7.044;2024-03-02T08:20:35;9.30;1.00
10129;DHT22;5104;50.720;7.044;2024-03-02T08:23:02;9.50;1.00
10129;DHT22;5104;50.720;7.044;2024-03-02T08:25:30;9.80;1.00
10129;DHT22;5104;50.720;7.044;2024-03-02T08:27:58;10.00;99.90
10129;DHT22;5104;50.720;7.044;2024-03-02T08:30:25;10.10;99.90
10129;DHT22;5104;50.720;7.044;2024-03-02T08:32:51;10.40;99.90
10129;DHT22;5104;50.720;7.044;2024-03-02T08:35:18;10.60;99.90
10129;DHT22;5104;50.720;7.044;2024-03-02T08:37:47;10.60;99.90
10129;DHT22;5104;50.720;7.044;2024-03-02T08:40:15;10.70;99.90
10129;DHT22;5104;50.720;7.044;2024-03-02T08:42:43;10.60;99.90
10129;DHT22;5104;50.720;7.044;2024-03-02T08:45:11;10.70;99.90
10129;DHT22;5104;50.720;7.044;2024-03-02T08:47:38;10.70;99.90
10129;DHT22;5104;50.720;7.044;2024-03-02T08:50:06;10.70;99.90
10129;DHT22;5104;50.720;7.044;2024-03-02T08:52:34;10.60;99.90
10129;DHT22;5104;50.720;7.044;2024-03-02T08:55:01;10.60;99.90
10129;DHT22;5104;50.720;7.044;2024-03-02T08:57:28;10.50;99.90
10129;DHT22;5104;50.720;7.044;2024-03-02T08:59:56;10.50;99.90
10129;DHT22;5104;50.720;7.044;2024-03-02T09:02:23;10.50;99.90
10129;DHT22;5104;50.720;7.044;2024-03-02T09:04:50;10.50;99.90
10129;DHT22;5104;50.720;7.044;2024-03-02T09:07:17;10.40;99.90
10129;DHT22;5104;50.720;7.044;2024-03-02T09:09:44;10.30;99.90
10129;DHT22;5104;50.720;7.044;2024-03-02T09:12:11;10.50;99.90
10129;DHT22;5104;50.720;7.044;2024-03-02T09:14:38;10.60;99.90
10129;DHT22;5104;50.720;7.044;2024-03-02T09:17:07;10.50;99.90
10129;DHT22;5104;50.720;7.044;2024-03-02T09:19:36;10.50;99.90
10129;DHT22;5104;50.720;7.044;2024-03-02T09:22:04;10.60;99.90
10129;DHT22;5104;50.720;7.044;2024-03-02T09:24:31;10.60;99.90
10129;DHT22;5104;50.720;7.044;2024-03-02T09:26:58;10.70;99.90
10129;DHT22;5104;50.720;7.044;2024-03-02T09:29:25;10.80;99.90
10129;DHT22;5104;50.720;7.044;2024-03-02T09:31:52;10.90;99.90
10129;DHT22;5104;50.720;7.044;2024-03-02T09:34:20;10.90;99.90
10129;DHT22;5104;50.720;7.044;2024-03-02T09:36:48;10.80;99.90
10129;DHT22;5104;50.720;7.044;2024-03-02T09:39:14;11.00;99.90
10129;DHT22;5104;50.720;7.044;2024-03-02T09:41:43;11.20;99.90
10129;DHT22;5104;50.720;7.044;2024-03-02T09:44:10;11.20;99.90
10129;DHT22;5104;50.720;7.044;2024-03-02T09:46:37;11.20;99.90
10129;DHT22;5104;50.720;7.044;2024-03-02T09:49:04;11.40;99.90
10129;DHT22;5104;50.720;7.044;2024-03-02T09:51:33;11.50;99.90
10129;DHT22;5104;50.720;7.044;2024-03-02T09:54:01;11.60;99.90
10129;DHT22;5104;50.720;7.044;2024-03-02T09:56:28;11.80;99.90
10129;DHT22;5104;50.720;7.044;2024-03-02T09:58:55;11.80;99.90
10129;DHT22;5104;50.720;7.044;2024-03-02T10:01:22;11.80;99.90
10129;DHT22;5104;50.720;7.044;2024-03-02T10:03:50;12.00;99.90
10129;DHT22;5104;50.720;7.044;2024-03-02T10:06:21;11.80;99.90
10129;DHT22;5104;50.720;7.044;2024-03-02T10:08:49;12.00;99.90
10129;DHT22;5104;50.720;7.044;2024-03-02T10:11:26;12.10;99.90
10129;DHT22;5104;50.720;7.044;2024-03-02T10:14:07;12.20;99.90
10129;DHT22;5104;50.720;7.044;2024-03-02T10:16:36;12.40;99.90
10129;DHT22;5104;50.720;7.044;2024-03-02T10:19:16;12.10;99.90
10129;DHT22;5104;50.720;7.044;2024-03-02T10:21:44;12.10;99.90
10129;DHT22;5104;50.720;7.044;2024-03-02T10:24:12;11.90;99.90
10129;DHT22;5104;50.720;7.044;2024-03-02T10:26:40;12.00;99.90
10129;DHT22;5104;50.720;7.044;2024-03-02T10:29:08;12.00;91.60
10129;DHT22;5104;50.720;7.044;2024-03-02T10:31:37;12.20;99.90
10129;DHT22;5104;50.720;7.044;2024-03-02T10:34:04;12.20;99.90
10129;DHT22;5104;50.720;7.044;2024-03-02T10:36:31;12.30;99.90
10129;DHT22;5104;50.720;7.044;2024-03-02T10:38:58;12.30;99.90
10129;DHT22;5104;50.720;7.044;2024-03-02T10:41:27;12.50;99.90
10129;DHT22;5104;50.720;7.044;2024-03-02T10:43:56;12.60;99.90
10129;DHT22;5104;50.720;7.044;2024-03-02T10:46:28;12.80;99.90
10129;DHT22;5104;50.720;7.044;2024-03-02T10:48:55;12.70;99.90
10129;DHT22;5104;50.720;7.044;2024-03-02T10:51:24;12.70;99.90
10129;DHT22;5104;50.720;7.044;2024-03-02T10:53:53;12.50;99.90
10129;DHT22;5104;50.720;7.044;2024-03-02T10:56:28;12.40;99.90
10129;DHT22;5104;50.720;7.044;2024-03-02T10:59:03;12.20;99.90
10129;DHT22;5104;50.720;7.044;2024-03-02T11:01:32;12.20;99.90
10129;DHT22;5104;50.720;7.044;2024-03-02T11:04:02;12.30;99.90
10129;DHT22;5104;50.720;7.044;2024-03-02T11:06:31;12.40;99.90
10129;DHT22;5104;50.720;7.044;2024-03-02T11:09:02;12.40;99.90
10129;DHT22;5104;50.720;7.044;2024-03-02T11:11:36;12.30;99.90
10129;DHT22;5104;50.720;7.044;2024-03-02T11:14:07;12.50;98.10
10129;DHT22;5104;50.720;7.044;2024-03-02T11:16:36;12.60;99.90
10129;DHT22;5104;50.720;7.044;2024-03-02T11:19:06;12.40;99.90
10129;DHT22;5104;50.720;7.044;2024-03-02T11:21:33;12.60;99.90
10129;DHT22;5104;50.720;7.044;2024-03-02T11:24:04;13.00;99.90
10129;DHT22;5104;50.720;7.044;2024-03-02T11:26:53;12.90;99.90
10129;DHT22;5104;50.720;7.044;2024-03-02T11:29:46;13.00;74.10
10129;DHT22;5104;50.720;7.044;2024-03-02T11:32:19;13.00;89.30
10129;DHT22;5104;50.720;7.044;2024-03-02T11:34:48;12.80;94.40
10129;DHT22;5104;50.720;7.044;2024-03-02T11:37:16;12.80;97.70
10129;DHT22;5104;50.720;7.044;2024-03-02T11:39:44;13.00;78.10
10129;DHT22;5104;50.720;7.044;2024-03-02T11:42:12;13.00;81.50
10129;DHT22;5104;50.720;7.044;2024-03-02T11:44:42;13.10;67.30
10129;DHT22;5104;50.720;7.044;2024-03-02T11:47:14;13.10;75.20
10129;DHT22;5104;50.720;7.044;2024-03-02T11:49:42;13.10;66.70
10129;DHT22;5104;50.720;7.044;2024-03-02T11:52:09;13.10;76.50
10129;DHT22;5104;50.720;7.044;2024-03-02T11:54:37;13.00;82.70
10129;DHT22;5104;50.720;7.044;2024-03-02T11:57:07;12.90;70.00
10129;DHT22;5104;50.720;7.044;2024-03-02T11:59:34;12.90;78.20
10129;DHT22;5104;50.720;7.044;2024-03-02T12:02:01;13.30;68.80
10129;DHT22;5104;50.720;7.044;2024-03-02T12:04:30;13.30;68.30
10129;DHT22;5104;50.720;7.044;2024-03-02T12:06:59;13.30;61.80
10129;DHT22;5104;50.720;7.044;2024-03-02T12:09:27;13.40;99.40
10129;DHT22;5104;50.720;7.044;2024-03-02T12:12:07;13.60;87.70
10129;DHT22;5104;50.720;7.044;2024-03-02T12:14:35;13.70;88.30
10129;DHT22;5104;50.720;7.044;2024-03-02T12:17:04;14.00;92.60
10129;DHT22;5104;50.720;7.044;2024-03-02T12:19:33;14.00;81.00
10129;DHT22;5104;50.720;7.044;2024-03-02T12:22:00;14.20;88.20
10129;DHT22;5104;50.720;7.044;2024-03-02T12:24:28;14.20;88.40
10129;DHT22;5104;50.720;7.044;2024-03-02T12:26:56;13.70;92.50
10129;DHT22;5104;50.720;7.044;2024-03-02T12:29:24;13.50;94.50
10129;DHT22;5104;50.720;7.044;2024-03-02T12:31:52;13.50;97.50
10129;DHT22;5104;50.720;7.044;2024-03-02T12:34:19;13.50;99.90
10129;DHT22;5104;50.720;7.044;2024-03-02T12:36:47;13.50;99.90
10129;DHT22;5104;50.720;7.044;2024-03-02T12:39:16;13.10;99.90
10129;DHT22;5104;50.720;7.044;2024-03-02T12:41:43;13.20;99.90
10129;DHT22;5104;50.720;7.044;2024-03-02T12:44:10;13.20;99.90
10129;DHT22;5104;50.720;7.044;2024-03-02T12:46:37;13.40;99.90
10129;DHT22;5104;50.720;7.044;2024-03-02T12:49:08;13.60;99.90
10129;DHT22;5104;50.720;7.044;2024-03-02T12:51:38;13.70;99.90
10129;DHT22;5104;50.720;7.044;2024-03-02T12:54:08;13.90;99.90
10129;DHT22;5104;50.720;7.044;2024-03-02T12:56:36;14.00;99.90
10129;DHT22;5104;50.720;7.044;2024-03-02T12:59:04;14.00;97.20
10129;DHT22;5104;50.720;7.044;2024-03-02T13:01:31;14.30;92.80
10129;DHT22;5104;50.720;7.044;2024-03-02T13:03:59;14.50;78.90
10129;DHT22;5104;50.720;7.044;2024-03-02T13:06:26;14.60;66.10
10129;DHT22;5104;50.720;7.044;2024-03-02T13:08:55;14.30;56.60
10129;DHT22;5104;50.720;7.044;2024-03-02T13:11:23;14.50;42.10
10129;DHT22;5104;50.720;7.044;2024-03-02T13:13:52;14.50;38.10
10129;DHT22;5104;50.720;7.044;2024-03-02T13:16:19;14.50;33.20
10129;DHT22;5104;50.720;7.044;2024-03-02T13:18:46;14.30;37.30
10129;DHT22;5104;50.720;7.044;2024-03-02T13:21:14;14.40;31.60
10129;DHT22;5104;50.720;7.044;2024-03-02T13:23:41;14.70;29.90
10129;DHT22;5104;50.720;7.044;2024-03-02T13:26:08;14.70;30.40
10129;DHT22;5104;50.720;7.044;2024-03-02T13:28:38;14.50;17.00
10129;DHT22;5104;50.720;7.044;2024-03-02T13:31:05;14.00;31.20
10129;DHT22;5104;50.720;7.044;2024-03-02T13:33:32;14.00;42.00
10129;DHT22;5104;50.720;7.044;2024-03-02T13:35:59;14.00;53.50
10129;DHT22;5104;50.720;7.044;2024-03-02T13:38:27;14.10;45.80
10129;DHT22;5104;50.720;7.044;2024-03-02T13:40:54;14.20;44.70
10129;DHT22;5104;50.720;7.044;2024-03-02T13:43:21;14.60;41.40
10129;DHT22;5104;50.720;7.044;2024-03-02T13:45:50;14.60;18.50
10129;DHT22;5104;50.720;7.044;2024-03-02T13:48:19;14.50;20.70
10129;DHT22;5104;50.720;7.044;2024-03-02T13:50:46;14.20;26.60
10129;DHT22;5104;50.720;7.044;2024-03-02T13:53:13;14.20;22.00
10129;DHT22;5104;50.720;7.044;2024-03-02T13:55:40;14.20;37.20
10129;DHT22;5104;50.720;7.044;2024-03-02T13:58:08;14.60;27.30
10129;DHT22;5104;50.720;7.044;2024-03-02T14:00:35;14.60;18.70
10129;DHT22;5104;50.720;7.044;2024-03-02T14:03:05;14.70;19.40
10129;DHT22;5104;50.720;7.044;2024-03-02T14:05:32;14.70;7.80
10129;DHT22;5104;50.720;7.044;2024-03-02T14:07:59;14.80;1.00
10129;DHT22;5104;50.720;7.044;2024-03-02T14:10:27;14.90;1.00
10129;DHT22;5104;50.720;7.044;2024-03-02T14:12:54;14.70;1.40
10129;DHT22;5104;50.720;7.044;2024-03-02T14:15:22;14.50;1.00
10129;DHT22;5104;50.720;7.044;2024-03-02T14:17:49;14.40;1.00
10129;DHT22;5104;50.720;7.044;2024-03-02T14:20:17;14.10;1.00
10129;DHT22;5104;50.720;7.044;2024-03-02T14:22:48;13.90;9.20
10129;DHT22;5104;50.720;7.044;2024-03-02T14:25:15;13.90;7.90
10129;DHT22;5104;50.720;7.044;2024-03-02T14:27:43;13.90;15.10
10129;DHT22;5104;50.720;7.044;2024-03-02T14:30:11;13.90;25.20
10129;DHT22;5104;50.720;7.044;2024-03-02T14:32:38;13.90;9.40
10129;DHT22;5104;50.720;7.044;2024-03-02T14:35:05;13.90;16.60
10129;DHT22;5104;50.720;7.044;2024-03-02T14:37:37;13.70;10.30
10129;DHT22;5104;50.720;7.044;2024-03-02T14:40:04;13.70;22.80
10129;DHT22;5104;50.720;7.044;2024-03-02T14:42:32;13.60;24.60
10129;DHT22;5104;50.720;7.044;2024-03-02T14:44:59;13.60;28.70
10129;DHT22;5104;50.720;7.044;2024-03-02T14:47:25;13.60;21.80
10129;DHT22;5104;50.720;7.044;2024-03-02T14:49:52;13.50;24.60
10129;DHT22;5104;50.720;7.044;2024-03-02T14:52:20;13.40;22.90
10129;DHT22;5104;50.720;7.044;2024-03-02T14:54:48;13.30;23.50
10129;DHT22;5104;50.720;7.044;2024-03-02T14:57:15;13.30;38.90
10129;DHT22;5104;50.720;7.044;2024-03-02T14:59:42;13.30;36.00
10129;DHT22;5104;50.720;7.044;2024-03-02T15:02:09;13.40;37.90
10129;DHT22;5104;50.720;7.044;2024-03-02T15:04:36;13.40;32.10
10129;DHT22;5104;50.720;7.044;2024-03-02T15:07:03;13.50;30.80
10129;DHT22;5104;50.720;7.044;2024-03-02T15:09:30;13.50;29.90
10129;DHT22;5104;50.720;7.044;2024-03-02T15:12:00;13.60;36.10
10129;DHT22;5104;50.720;7.044;2024-03-02T15:14:28;13.60;41.90
10129;DHT22;5104;50.720;7.044;2024-03-02T15:16:56;13.70;29.80
10129;DHT22;5104;50.720;7.044;2024-03-02T15:19:23;13.80;19.30
10129;DHT22;5104;50.720;7.044;2024-03-02T15:21:49;13.90;24.20
10129;DHT22;5104;50.720;7.044;2024-03-02T15:24:16;13.80;18.30
10129;DHT22;5104;50.720;7.044;2024-03-02T15:26:43;13.80;27.90
10129;DHT22;5104;50.720;7.044;2024-03-02T15:29:12;13.90;33.20
10129;DHT22;5104;50.720;7.044;2024-03-02T15:31:39;13.90;26.70
10129;DHT22;5104;50.720;7.044;2024-03-02T15:34:06;13.90;16.60
10129;DHT22;5104;50.720;7.044;2024-03-02T15:36:33;13.70;20.40
10129;DHT22;5104;50.720;7.044;2024-03-02T15:39:01;13.60;21.50
10129;DHT22;5104;50.720;7.044;2024-03-02T15:41:34;13.60;20.70
10129;DHT22;5104;50.720;7.044;2024-03-02T15:44:01;13.60;15.90
10129;DHT22;5104;50.720;7.044;2024-03-02T15:46:29;13.70;16.10
10129;DHT22;5104;50.720;7.044;2024-03-02T15:48:56;13.70;12.20
10129;DHT22;5104;50.720;7.044;2024-03-02T15:51:23;13.60;9.90
10129;DHT22;5104;50.720;7.044;2024-03-02T15:53:50;13.70;11.60
10129;DHT22;5104;50.720;7.044;2024-03-02T15:56:17;13.70;22.40
10129;DHT22;5104;50.720;7.044;2024-03-02T15:58:44;13.60;23.90
10129;DHT22;5104;50.720;7.044;2024-03-02T16:01:11;13.40;13.60
10129;DHT22;5104;50.720;7.044;2024-03-02T16:03:40;13.40;16.80
10129;DHT22;5104;50.720;7.044;2024-03-02T16:06:07;13.30;26.00